sensor_id;sensor_type;location;lat;lon;timestamp;P1;durP1;ratioP1;P2;durP2;ratioP2
18265;SDS011;9259;48.194;16.322;2023-05-21T00:00:29;17.73;;;8.35;;
18265;SDS011;9259;48.194;16.322;2023-05-21T00:02:57;20.33;;;8.50;;
18265;SDS011;9259;48.194;16.322;2023-05-21T00:05:25;15.27;;;8.07;;
18265;SDS011;9259;48.194;16.322;2023-05-21T00:07:52;19.00;;;8.20;;
18265;SDS011;9259;48.194;16.322;2023-05-21T00:10:20;15.10;;;7.25;;
18265;SDS011;9259;48.194;16.322;2023-05-21T00:12:48;17.15;;;8.82;;
18265;SDS011;9259;48.194;16.322;2023-05-21T00:15:17;16.70;;;8.27;;
18265;SDS011;9259;48.194;16.322;2023-05-21T00:17:44;17.48;;;8.02;;
18265;SDS011;9259;48.194;16.322;2023-05-21T00:20:12;20.17;;;8.32;;
18265;SDS011;9259;48.194;16.322;2023-05-21T00:22:41;15.77;;;7.55;;
18265;SDS011;9259;48.194;16.322;2023-05-21T00:25:09;17.60;;;7.80;;
18265;SDS011;9259;48.194;16.322;2023-05-21T00:27:37;16.65;;;8.05;;
18265;SDS011;9259;48.194;16.322;2023-05-21T00:30:05;19.85;;;8.60;;
18265;SDS011;9259;48.194;16.322;2023-05-21T00:32:34;20.95;;;8.18;;
18265;SDS011;9259;48.194;16.322;2023-05-21T00:35:02;16.90;;;8.02;;
18265;SDS011;9259;48.194;16.322;2023-05-21T00:37:30;16.88;;;8.02;;
18265;SDS011;9259;48.194;16.322;2023-05-21T00:39:59;14.15;;;7.68;;
18265;SDS011;9259;48.194;16.322;2023-05-21T00:42:27;12.95;;;6.60;;
18265;SDS011;9259;48.194;16.322;2023-05-21T00:44:55;14.98;;;6.95;;
18265;SDS011;9259;48.194;16.322;2023-05-21T00:47:22;13.18;;;6.53;;
18265;SDS011;9259;48.194;16.322;2023-05-21T00:49:52;14.45;;;7.03;;
18265;SDS011;9259;48.194;16.322;2023-05-21T00:52:20;15.57;;;7.30;;
18265;SDS011;9259;48.194;16.322;2023-05-21T00:54:51;13.70;;;6.55;;
18265;SDS011;9259;48.194;16.322;2023-05-21T00:57:19;12.68;;;6.07;;
18265;SDS011;9259;48.194;16.322;2023-05-21T00:59:49;14.80;;;7.35;;
18265;SDS011;9259;48.194;16.322;2023-05-21T01:02:17;15.52;;;7.18;;
18265;SDS011;9259;48.194;16.322;2023-05-21T01:04:44;14.20;;;6.70;;
18265;SDS011;9259;48.194;16.322;2023-05-21T01:07:13;16.92;;;7.05;;
18265;SDS011;9259;48.194;16.322;2023-05-21T01:09:43;16.70;;;7.57;;
18265;SDS011;9259;48.194;16.322;2023-05-21T01:12:10;17.08;;;7.18;;
18265;SDS011;9259;48.194;16.322;2023-05-21T01:14:38;14.20;;;6.95;;
18265;SDS011;9259;48.194;16.322;2023-05-21T01:17:07;16.83;;;7.50;;
18265;SDS011;9259;48.194;16.322;2023-05-21T01:19:37;15.32;;;6.93;;
18265;SDS011;9259;48.194;16.322;2023-05-21T01:22:06;17.90;;;7.68;;
18265;SDS011;9259;48.194;16.322;2023-05-21T01:24:35;17.48;;;7.30;;
18265;SDS011;9259;48.194;16.322;2023-05-21T01:27:03;12.40;;;6.65;;
18265;SDS011;9259;48.194;16.322;2023-05-21T01:29:32;13.70;;;6.60;;
18265;SDS011;9259;48.194;16.322;2023-05-21T01:32:01;14.77;;;7.25;;
18265;SDS011;9259;48.194;16.322;2023-05-21T01:34:31;15.27;;;7.57;;
18265;SDS011;9259;48.194;16.322;2023-05-21T01:37:04;15.00;;;7.00;;
18265;SDS011;9259;48.194;16.322;2023-05-21T01:39:33;15.15;;;7.45;;
18265;SDS011;9259;48.194;16.322;2023-05-21T01:42:06;19.98;;;8.30;;
18265;SDS011;9259;48.194;16.322;2023-05-21T01:44:35;13.02;;;6.72;;
18265;SDS011;9259;48.194;16.322;2023-05-21T01:47:04;20.63;;;7.55;;
18265;SDS011;9259;48.194;16.322;2023-05-21T01:49:31;15.93;;;7.85;;
18265;SDS011;9259;48.194;16.322;2023-05-21T01:51:59;14.82;;;7.70;;
18265;SDS011;9259;48.194;16.322;2023-05-21T01:54:27;14.48;;;7.32;;
18265;SDS011;9259;48.194;16.322;2023-05-21T01:56:55;17.10;;;7.55;;
18265;SDS011;9259;48.194;16.322;2023-05-21T01:59:24;16.25;;;7.82;;
18265;SDS011;9259;48.194;16.322;2023-05-21T02:01:52;20.02;;;8.63;;
18265;SDS011;9259;48.194;16.322;2023-05-21T02:04:19;16.70;;;7.43;;
18265;SDS011;9259;48.194;16.322;2023-05-21T02:06:47;17.05;;;8.38;;
18265;SDS011;9259;48.194;16.322;2023-05-21T02:09:15;16.13;;;7.80;;
18265;SDS011;9259;48.194;16.322;2023-05-21T02:11:42;20.17;;;7.70;;
18265;SDS011;9259;48.194;16.322;2023-05-21T02:14:10;14.25;;;7.75;;
18265;SDS011;9259;48.194;16.322;2023-05-21T02:16:39;19.20;;;7.65;;
18265;SDS011;9259;48.194;16.322;2023-05-21T02:19:07;13.90;;;7.35;;
18265;SDS011;9259;48.194;16.322;2023-05-21T02:21:35;17.63;;;7.97;;
18265;SDS011;9259;48.194;16.322;2023-05-21T02:24:03;16.30;;;7.55;;
18265;SDS011;9259;48.194;16.322;2023-05-21T02:26:31;14.27;;;7.05;;
18265;SDS011;9259;48.194;16.322;2023-05-21T02:28:59;19.65;;;6.70;;
18265;SDS011;9259;48.194;16.322;2023-05-21T02:31:27;16.67;;;6.93;;
18265;SDS011;9259;48.194;16.322;2023-05-21T02:33:56;13.00;;;6.28;;
18265;SDS011;9259;48.194;16.322;2023-05-21T02:36:23;15.43;;;6.95;;
18265;SDS011;9259;48.194;16.322;2023-05-21T02:38:53;15.70;;;7.20;;
18265;SDS011;9259;48.194;16.322;2023-05-21T02:41:22;13.63;;;7.32;;
18265;SDS011;9259;48.194;16.322;2023-05-21T02:43:51;14.60;;;6.97;;
18265;SDS011;9259;48.194;16.322;2023-05-21T02:46:19;13.55;;;6.93;;
18265;SDS011;9259;48.194;16.322;2023-05-21T02:48:46;15.07;;;7.60;;
18265;SDS011;9259;48.194;16.322;2023-05-21T02:51:15;15.80;;;6.97;;
18265;SDS011;9259;48.194;16.322;2023-05-21T02:53:43;17.58;;;7.70;;
18265;SDS011;9259;48.194;16.322;2023-05-21T02:56:10;17.30;;;8.10;;
18265;SDS011;9259;48.194;16.322;2023-05-21T02:58:38;16.00;;;7.65;;
18265;SDS011;9259;48.194;16.322;2023-05-21T03:01:06;14.02;;;6.35;;
18265;SDS011;9259;48.194;16.322;2023-05-21T03:03:33;13.50;;;6.80;;
18265;SDS011;9259;48.194;16.322;2023-05-21T03:06:01;13.68;;;6.68;;
18265;SDS011;9259;48.194;16.322;2023-05-21T03:08:30;17.90;;;7.27;;
18265;SDS011;9259;48.194;16.322;2023-05-21T03:10:58;18.52;;;7.18;;
18265;SDS011;9259;48.194;16.322;2023-05-21T03:13:26;15.63;;;6.88;;
18265;SDS011;9259;48.194;16.322;2023-05-21T03:15:53;14.63;;;6.60;;
18265;SDS011;9259;48.194;16.322;2023-05-21T03:18:21;15.10;;;6.72;;
18265;SDS011;9259;48.194;16.322;2023-05-21T03:20:48;19.05;;;7.45;;
18265;SDS011;9259;48.194;16.322;2023-05-21T03:23:16;14.23;;;6.63;;
18265;SDS011;9259;48.194;16.322;2023-05-21T03:25:45;15.05;;;6.70;;
18265;SDS011;9259;48.194;16.322;2023-05-21T03:28:13;15.65;;;7.32;;
18265;SDS011;9259;48.194;16.322;2023-05-21T03:30:42;15.57;;;7.18;;
18265;SDS011;9259;48.194;16.322;2023-05-21T03:33:11;16.58;;;7.07;;
18265;SDS011;9259;48.194;16.322;2023-05-21T03:35:40;14.82;;;7.38;;
18265;SDS011;9259;48.194;16.322;2023-05-21T03:38:07;15.85;;;6.72;;
18265;SDS011;9259;48.194;16.322;2023-05-21T03:40:35;16.33;;;7.00;;
18265;SDS011;9259;48.194;16.322;2023-05-21T03:43:04;15.43;;;7.60;;
18265;SDS011;9259;48.194;16.322;2023-05-21T03:45:31;14.00;;;6.47;;
18265;SDS011;9259;48.194;16.322;2023-05-21T03:47:59;14.52;;;6.82;;
18265;SDS011;9259;48.194;16.322;2023-05-21T03:50:27;11.75;;;6.25;;
18265;SDS011;9259;48.194;16.322;2023-05-21T03:52:54;16.83;;;7.60;;
18265;SDS011;9259;48.194;16.322;2023-05-21T03:55:22;13.07;;;6.90;;
18265;SDS011;9259;48.194;16.322;2023-05-21T03:57:49;16.90;;;6.93;;
18265;SDS011;9259;48.194;16.322;2023-05-21T04:00:19;17.67;;;7.43;;
18265;SDS011;9259;48.194;16.322;2023-05-21T04:02:46;15.25;;;5.85;;
18265;SDS011;9259;48.194;16.322;2023-05-21T04:05:14;12.63;;;6.75;;
18265;SDS011;9259;48.194;16.322;2023-05-21T04:07:41;17.08;;;7.53;;
18265;SDS011;9259;48.194;16.322;2023-05-21T04:10:10;16.50;;;7.20;;
18265;SDS011;9259;48.194;16.322;2023-05-21T04:12:38;15.07;;;6.83;;
18265;SDS011;9259;48.194;16.322;2023-05-21T04:15:06;13.13;;;6.05;;
18265;SDS011;9259;48.194;16.322;2023-05-21T04:17:35;16.70;;;7.57;;
18265;SDS011;9259;48.194;16.322;2023-05-21T04:20:04;17.05;;;7.00;;
18265;SDS011;9259;48.194;16.322;2023-05-21T04:22:32;11.90;;;6.78;;
18265;SDS011;9259;48.194;16.322;2023-05-21T04:25:00;15.15;;;6.78;;
18265;SDS011;9259;48.194;16.322;2023-05-21T04:27:27;12.15;;;6.65;;
18265;SDS011;9259;48.194;16.322;2023-05-21T04:29:55;13.95;;;6.95;;
18265;SDS011;9259;48.194;16.322;2023-05-21T04:32:23;13.48;;;7.43;;
18265;SDS011;9259;48.194;16.322;2023-05-21T04:34:54;15.13;;;6.60;;
18265;SDS011;9259;48.194;16.322;2023-05-21T04:37:21;15.52;;;7.15;;
18265;SDS011;9259;48.194;16.322;2023-05-21T04:39:50;16.25;;;7.40;;
18265;SDS011;9259;48.194;16.322;2023-05-21T04:42:17;11.60;;;6.30;;
18265;SDS011;9259;48.194;16.322;2023-05-21T04:44:48;13.52;;;6.43;;
18265;SDS011;9259;48.194;16.322;2023-05-21T04:47:16;15.18;;;6.25;;
18265;SDS011;9259;48.194;16.322;2023-05-21T04:49:44;15.02;;;7.10;;
18265;SDS011;9259;48.194;16.322;2023-05-21T04:52:13;14.98;;;6.90;;
18265;SDS011;9259;48.194;16.322;2023-05-21T04:54:41;13.20;;;6.43;;
18265;SDS011;9259;48.194;16.322;2023-05-21T04:57:10;14.52;;;6.72;;
18265;SDS011;9259;48.194;16.322;2023-05-21T04:59:37;12.82;;;6.65;;
18265;SDS011;9259;48.194;16.322;2023-05-21T05:02:05;14.43;;;6.75;;
18265;SDS011;9259;48.194;16.322;2023-05-21T05:04:33;12.15;;;6.43;;
18265;SDS011;9259;48.194;16.322;2023-05-21T05:07:01;12.73;;;6.32;;
18265;SDS011;9259;48.194;16.322;2023-05-21T05:09:30;13.95;;;7.00;;
18265;SDS011;9259;48.194;16.322;2023-05-21T05:11:57;12.63;;;6.57;;
18265;SDS011;9259;48.194;16.322;2023-05-21T05:14:25;17.00;;;7.70;;
18265;SDS011;9259;48.194;16.322;2023-05-21T05:16:52;13.68;;;7.15;;
18265;SDS011;9259;48.194;16.322;2023-05-21T05:19:25;16.98;;;7.30;;
18265;SDS011;9259;48.194;16.322;2023-05-21T05:21:52;11.98;;;6.70;;
18265;SDS011;9259;48.194;16.322;2023-05-21T05:24:20;13.23;;;6.72;;
18265;SDS011;9259;48.194;16.322;2023-05-21T05:26:49;14.00;;;6.32;;
18265;SDS011;9259;48.194;16.322;2023-05-21T05:29:17;13.23;;;6.50;;
18265;SDS011;9259;48.194;16.322;2023-05-21T05:31:44;13.32;;;6.88;;
18265;SDS011;9259;48.194;16.322;2023-05-21T05:34:12;16.73;;;7.15;;
18265;SDS011;9259;48.194;16.322;2023-05-21T05:36:40;14.30;;;6.43;;
18265;SDS011;9259;48.194;16.322;2023-05-21T05:39:07;12.98;;;6.78;;
18265;SDS011;9259;48.194;16.322;2023-05-21T05:41:35;15.25;;;6.35;;
18265;SDS011;9259;48.194;16.322;2023-05-21T05:44:04;12.95;;;6.20;;
18265;SDS011;9259;48.194;16.322;2023-05-21T05:46:32;10.82;;;6.20;;
18265;SDS011;9259;48.194;16.322;2023-05-21T05:48:59;11.55;;;5.78;;
18265;SDS011;9259;48.194;16.322;2023-05-21T05:51:27;11.45;;;6.35;;
18265;SDS011;9259;48.194;16.322;2023-05-21T05:53:55;10.98;;;5.60;;
18265;SDS011;9259;48.194;16.322;2023-05-21T05:56:23;17.80;;;6.47;;
18265;SDS011;9259;48.194;16.322;2023-05-21T05:58:51;12.18;;;5.55;;
18265;SDS011;9259;48.194;16.322;2023-05-21T06:01:20;13.75;;;5.60;;
18265;SDS011;9259;48.194;16.322;2023-05-21T06:03:49;11.23;;;6.10;;
18265;SDS011;9259;48.194;16.322;2023-05-21T06:06:16;14.05;;;6.88;;
18265;SDS011;9259;48.194;16.322;2023-05-21T06:08:44;11.25;;;5.78;;
18265;SDS011;9259;48.194;16.322;2023-05-21T06:11:12;12.23;;;6.20;;
18265;SDS011;9259;48.194;16.322;2023-05-21T06:13:41;12.23;;;5.50;;
18265;SDS011;9259;48.194;16.322;2023-05-21T06:16:09;14.00;;;5.80;;
18265;SDS011;9259;48.194;16.322;2023-05-21T06:18:38;12.45;;;5.93;;
18265;SDS011;9259;48.194;16.322;2023-05-21T06:21:06;10.32;;;5.50;;
18265;SDS011;9259;48.194;16.322;2023-05-21T06:23:33;12.48;;;6.25;;
18265;SDS011;9259;48.194;16.322;2023-05-21T06:26:02;11.57;;;6.15;;
18265;SDS011;9259;48.194;16.322;2023-05-21T06:28:30;11.60;;;6.05;;
18265;SDS011;9259;48.194;16.322;2023-05-21T06:30:57;10.77;;;5.60;;
18265;SDS011;9259;48.194;16.322;2023-05-21T06:33:25;10.65;;;5.32;;
18265;SDS011;9259;48.194;16.322;2023-05-21T06:35:54;8.98;;;4.82;;
18265;SDS011;9259;48.194;16.322;2023-05-21T06:38:21;10.75;;;5.05;;
18265;SDS011;9259;48.194;16.322;2023-05-21T06:40:49;10.15;;;5.28;;
18265;SDS011;9259;48.194;16.322;2023-05-21T06:43:17;9.45;;;5.30;;
18265;SDS011;9259;48.194;16.322;2023-05-21T06:45:44;10.93;;;5.28;;
18265;SDS011;9259;48.194;16.322;2023-05-21T06:48:12;11.60;;;4.75;;
18265;SDS011;9259;48.194;16.322;2023-05-21T06:50:41;12.43;;;5.60;;
18265;SDS011;9259;48.194;16.322;2023-05-21T06:53:10;9.65;;;5.45;;
18265;SDS011;9259;48.194;16.322;2023-05-21T06:55:40;11.43;;;5.53;;
18265;SDS011;9259;48.194;16.322;2023-05-21T06:58:09;12.55;;;5.57;;
18265;SDS011;9259;48.194;16.322;2023-05-21T07:00:36;8.93;;;4.93;;
18265;SDS011;9259;48.194;16.322;2023-05-21T07:03:04;9.35;;;5.22;;
18265;SDS011;9259;48.194;16.322;2023-05-21T07:05:32;13.75;;;5.63;;
18265;SDS011;9259;48.194;16.322;2023-05-21T07:07:59;9.63;;;5.22;;
18265;SDS011;9259;48.194;16.322;2023-05-21T07:10:28;10.43;;;5.15;;
18265;SDS011;9259;48.194;16.322;2023-05-21T07:12:56;11.73;;;5.43;;
18265;SDS011;9259;48.194;16.322;2023-05-21T07:15:24;11.88;;;5.72;;
18265;SDS011;9259;48.194;16.322;2023-05-21T07:17:51;12.43;;;5.43;;
18265;SDS011;9259;48.194;16.322;2023-05-21T07:20:19;8.35;;;5.35;;
18265;SDS011;9259;48.194;16.322;2023-05-21T07:22:46;12.60;;;5.18;;
18265;SDS011;9259;48.194;16.322;2023-05-21T07:25:14;10.68;;;5.30;;
18265;SDS011;9259;48.194;16.322;2023-05-21T07:27:43;12.60;;;5.65;;
18265;SDS011;9259;48.194;16.322;2023-05-21T07:30:11;9.13;;;5.32;;
18265;SDS011;9259;48.194;16.322;2023-05-21T07:32:38;8.35;;;4.78;;
18265;SDS011;9259;48.194;16.322;2023-05-21T07:35:06;8.55;;;5.07;;
18265;SDS011;9259;48.194;16.322;2023-05-21T07:37:34;12.55;;;5.28;;
18265;SDS011;9259;48.194;16.322;2023-05-21T07:40:02;8.77;;;5.00;;
18265;SDS011;9259;48.194;16.322;2023-05-21T07:42:30;9.38;;;4.90;;
18265;SDS011;9259;48.194;16.322;2023-05-21T07:44:59;8.90;;;5.05;;
18265;SDS011;9259;48.194;16.322;2023-05-21T07:47:27;11.35;;;5.53;;
18265;SDS011;9259;48.194;16.322;2023-05-21T07:49:55;8.70;;;4.97;;
18265;SDS011;9259;48.194;16.322;2023-05-21T07:52:24;10.52;;;5.28;;
18265;SDS011;9259;48.194;16.322;2023-05-21T07:54:51;9.38;;;4.63;;
18265;SDS011;9259;48.194;16.322;2023-05-21T07:57:19;9.35;;;5.20;;
18265;SDS011;9259;48.194;16.322;2023-05-21T07:59:47;10.80;;;5.43;;
18265;SDS011;9259;48.194;16.322;2023-05-21T08:02:17;10.32;;;5.55;;
18265;SDS011;9259;48.194;16.322;2023-05-21T08:04:44;10.23;;;4.72;;
18265;SDS011;9259;48.194;16.322;2023-05-21T08:07:12;7.85;;;4.32;;
18265;SDS011;9259;48.194;16.322;2023-05-21T08:09:41;10.10;;;5.47;;
18265;SDS011;9259;48.194;16.322;2023-05-21T08:12:09;10.10;;;5.00;;
18265;SDS011;9259;48.194;16.322;2023-05-21T08:14:40;11.13;;;4.90;;
18265;SDS011;9259;48.194;16.322;2023-05-21T08:17:07;10.90;;;5.22;;
18265;SDS011;9259;48.194;16.322;2023-05-21T08:19:37;11.05;;;5.50;;
18265;SDS011;9259;48.194;16.322;2023-05-21T08:22:04;10.52;;;5.43;;
18265;SDS011;9259;48.194;16.322;2023-05-21T08:24:32;8.02;;;4.15;;
18265;SDS011;9259;48.194;16.322;2023-05-21T08:27:00;7.22;;;4.25;;
18265;SDS011;9259;48.194;16.322;2023-05-21T08:29:28;7.97;;;4.72;;
18265;SDS011;9259;48.194;16.322;2023-05-21T08:31:56;9.00;;;5.30;;
18265;SDS011;9259;48.194;16.322;2023-05-21T08:34:23;9.98;;;5.32;;
18265;SDS011;9259;48.194;16.322;2023-05-21T08:36:52;7.50;;;4.78;;
18265;SDS011;9259;48.194;16.322;2023-05-21T08:39:20;9.50;;;5.13;;
18265;SDS011;9259;48.194;16.322;2023-05-21T08:41:48;9.65;;;4.88;;
18265;SDS011;9259;48.194;16.322;2023-05-21T08:44:19;8.55;;;5.50;;
18265;SDS011;9259;48.194;16.322;2023-05-21T08:46:48;8.90;;;4.35;;
18265;SDS011;9259;48.194;16.322;2023-05-21T08:49:16;7.55;;;4.68;;
18265;SDS011;9259;48.194;16.322;2023-05-21T08:51:45;8.13;;;5.13;;
18265;SDS011;9259;48.194;16.322;2023-05-21T08:54:16;9.20;;;4.38;;
18265;SDS011;9259;48.194;16.322;2023-05-21T08:56:43;11.05;;;5.13;;
18265;SDS011;9259;48.194;16.322;2023-05-21T08:59:14;6.00;;;3.80;;
18265;SDS011;9259;48.194;16.322;2023-05-21T09:01:41;7.80;;;4.72;;
18265;SDS011;9259;48.194;16.322;2023-05-21T09:04:10;7.57;;;3.35;;
18265;SDS011;9259;48.194;16.322;2023-05-21T09:06:39;5.72;;;4.00;;
18265;SDS011;9259;48.194;16.322;2023-05-21T09:09:09;7.20;;;4.10;;
18265;SDS011;9259;48.194;16.322;2023-05-21T09:11:41;6.43;;;3.83;;
18265;SDS011;9259;48.194;16.322;2023-05-21T09:14:08;6.35;;;3.72;;
18265;SDS011;9259;48.194;16.322;2023-05-21T09:16:37;6.45;;;4.10;;
18265;SDS011;9259;48.194;16.322;2023-05-21T09:19:05;7.70;;;4.22;;
18265;SDS011;9259;48.194;16.322;2023-05-21T09:21:32;7.18;;;3.85;;
18265;SDS011;9259;48.194;16.322;2023-05-21T09:24:00;5.30;;;3.67;;
18265;SDS011;9259;48.194;16.322;2023-05-21T09:26:28;7.53;;;4.15;;
18265;SDS011;9259;48.194;16.322;2023-05-21T09:28:58;6.93;;;3.88;;
18265;SDS011;9259;48.194;16.322;2023-05-21T09:31:26;5.50;;;3.55;;
18265;SDS011;9259;48.194;16.322;2023-05-21T09:33:55;5.55;;;3.78;;
18265;SDS011;9259;48.194;16.322;2023-05-21T09:36:23;5.72;;;3.60;;
18265;SDS011;9259;48.194;16.322;2023-05-21T09:38:51;5.90;;;3.75;;
18265;SDS011;9259;48.194;16.322;2023-05-21T09:41:18;8.38;;;3.55;;
18265;SDS011;9259;48.194;16.322;2023-05-21T09:43:47;6.47;;;3.60;;
18265;SDS011;9259;48.194;16.322;2023-05-21T09:46:16;6.45;;;3.47;;
18265;SDS011;9259;48.194;16.322;2023-05-21T09:48:46;6.82;;;3.40;;
18265;SDS011;9259;48.194;16.322;2023-05-21T09:51:14;6.82;;;3.92;;
18265;SDS011;9259;48.194;16.322;2023-05-21T09:53:43;9.15;;;4.20;;
18265;SDS011;9259;48.194;16.322;2023-05-21T09:56:11;7.00;;;3.97;;
18265;SDS011;9259;48.194;16.322;2023-05-21T09:58:39;7.15;;;4.13;;
18265;SDS011;9259;48.194;16.322;2023-05-21T10:01:06;6.38;;;4.05;;
18265;SDS011;9259;48.194;16.322;2023-05-21T10:03:38;9.18;;;4.15;;
18265;SDS011;9259;48.194;16.322;2023-05-21T10:06:06;5.72;;;3.67;;
18265;SDS011;9259;48.194;16.322;2023-05-21T10:08:35;4.20;;;2.75;;
18265;SDS011;9259;48.194;16.322;2023-05-21T10:11:03;6.80;;;3.72;;
18265;SDS011;9259;48.194;16.322;2023-05-21T10:13:32;4.72;;;3.17;;
18265;SDS011;9259;48.194;16.322;2023-05-21T10:16:00;5.97;;;3.97;;
18265;SDS011;9259;48.194;16.322;2023-05-21T10:18:28;5.88;;;3.67;;
18265;SDS011;9259;48.194;16.322;2023-05-21T10:20:58;6.05;;;3.60;;
18265;SDS011;9259;48.194;16.322;2023-05-21T10:23:27;7.28;;;3.72;;
18265;SDS011;9259;48.194;16.322;2023-05-21T10:25:55;5.70;;;3.42;;
18265;SDS011;9259;48.194;16.322;2023-05-21T10:28:23;6.43;;;3.85;;
18265;SDS011;9259;48.194;16.322;2023-05-21T10:30:51;8.00;;;3.55;;
18265;SDS011;9259;48.194;16.322;2023-05-21T10:33:19;5.75;;;3.45;;
18265;SDS011;9259;48.194;16.322;2023-05-21T10:35:50;5.80;;;3.42;;
18265;SDS011;9259;48.194;16.322;2023-05-21T10:38:19;5.72;;;3.67;;
18265;SDS011;9259;48.194;16.322;2023-05-21T10:40:46;7.50;;;3.10;;
18265;SDS011;9259;48.194;16.322;2023-05-21T10:43:29;5.93;;;3.72;;
18265;SDS011;9259;48.194;16.322;2023-05-21T10:46:14;7.30;;;3.60;;
18265;SDS011;9259;48.194;16.322;2023-05-21T10:48:48;6.22;;;3.47;;
18265;SDS011;9259;48.194;16.322;2023-05-21T10:51:19;5.53;;;3.42;;
18265;SDS011;9259;48.194;16.322;2023-05-21T10:56:38;4.60;;;3.00;;
18265;SDS011;9259;48.194;16.322;2023-05-21T10:59:15;5.68;;;3.13;;
18265;SDS011;9259;48.194;16.322;2023-05-21T11:01:47;5.05;;;3.20;;
18265;SDS011;9259;48.194;16.322;2023-05-21T11:04:20;6.05;;;3.67;;
18265;SDS011;9259;48.194;16.322;2023-05-21T11:06:48;6.72;;;3.25;;
18265;SDS011;9259;48.194;16.322;2023-05-21T11:09:16;6.32;;;3.45;;
18265;SDS011;9259;48.194;16.322;2023-05-21T11:11:48;5.68;;;3.28;;
18265;SDS011;9259;48.194;16.322;2023-05-21T11:14:26;5.63;;;2.88;;
18265;SDS011;9259;48.194;16.322;2023-05-21T11:16:56;5.97;;;3.50;;
18265;SDS011;9259;48.194;16.322;2023-05-21T11:19:31;4.88;;;3.35;;
18265;SDS011;9259;48.194;16.322;2023-05-21T11:22:00;5.70;;;3.38;;
18265;SDS011;9259;48.194;16.322;2023-05-21T11:24:27;8.05;;;3.58;;
18265;SDS011;9259;48.194;16.322;2023-05-21T11:27:00;6.07;;;3.45;;
18265;SDS011;9259;48.194;16.322;2023-05-21T11:29:42;5.93;;;3.70;;
18265;SDS011;9259;48.194;16.322;2023-05-21T11:32:11;8.30;;;3.63;;
18265;SDS011;9259;48.194;16.322;2023-05-21T11:34:40;4.78;;;3.10;;
18265;SDS011;9259;48.194;16.322;2023-05-21T11:39:52;6.38;;;4.13;;
18265;SDS011;9259;48.194;16.322;2023-05-21T11:42:28;5.43;;;3.55;;
18265;SDS011;9259;48.194;16.322;2023-05-21T11:44:56;5.25;;;3.25;;
18265;SDS011;9259;48.194;16.322;2023-05-21T11:47:24;6.22;;;3.45;;
18265;SDS011;9259;48.194;16.322;2023-05-21T11:49:52;7.22;;;3.42;;
18265;SDS011;9259;48.194;16.322;2023-05-21T11:52:20;8.65;;;3.92;;
18265;SDS011;9259;48.194;16.322;2023-05-21T11:54:49;5.28;;;3.17;;
18265;SDS011;9259;48.194;16.322;2023-05-21T11:57:20;5.35;;;3.03;;
18265;SDS011;9259;48.194;16.322;2023-05-21T11:59:49;5.55;;;3.60;;
18265;SDS011;9259;48.194;16.322;2023-05-21T12:02:18;5.05;;;2.95;;
18265;SDS011;9259;48.194;16.322;2023-05-21T12:04:46;8.23;;;3.67;;
18265;SDS011;9259;48.194;16.322;2023-05-21T12:07:14;7.10;;;3.25;;
18265;SDS011;9259;48.194;16.322;2023-05-21T12:09:42;5.88;;;3.63;;
18265;SDS011;9259;48.194;16.322;2023-05-21T12:12:10;5.50;;;3.67;;
18265;SDS011;9259;48.194;16.322;2023-05-21T12:14:41;6.30;;;3.45;;
18265;SDS011;9259;48.194;16.322;2023-05-21T12:17:12;4.78;;;3.17;;
18265;SDS011;9259;48.194;16.322;2023-05-21T12:19:41;5.32;;;3.45;;
18265;SDS011;9259;48.194;16.322;2023-05-21T12:22:11;4.53;;;3.38;;
18265;SDS011;9259;48.194;16.322;2023-05-21T12:24:41;5.28;;;3.40;;
18265;SDS011;9259;48.194;16.322;2023-05-21T12:27:09;4.68;;;3.10;;
18265;SDS011;9259;48.194;16.322;2023-05-21T12:29:38;5.47;;;3.97;;
18265;SDS011;9259;48.194;16.322;2023-05-21T12:32:07;4.43;;;2.95;;
18265;SDS011;9259;48.194;16.322;2023-05-21T12:34:39;6.90;;;3.47;;
18265;SDS011;9259;48.194;16.322;2023-05-21T12:37:10;6.25;;;3.63;;
18265;SDS011;9259;48.194;16.322;2023-05-21T12:39:41;5.05;;;3.45;;
18265;SDS011;9259;48.194;16.322;2023-05-21T12:42:10;5.95;;;3.63;;
18265;SDS011;9259;48.194;16.322;2023-05-21T12:44:38;8.95;;;3.25;;
18265;SDS011;9259;48.194;16.322;2023-05-21T12:47:06;4.63;;;3.33;;
18265;SDS011;9259;48.194;16.322;2023-05-21T12:49:34;5.65;;;3.40;;
18265;SDS011;9259;48.194;16.322;2023-05-21T12:52:06;6.18;;;3.70;;
18265;SDS011;9259;48.194;16.322;2023-05-21T12:54:35;5.72;;;3.15;;
18265;SDS011;9259;48.194;16.322;2023-05-21T12:57:07;6.75;;;3.88;;
18265;SDS011;9259;48.194;16.322;2023-05-21T12:59:46;5.22;;;3.33;;
18265;SDS011;9259;48.194;16.322;2023-05-21T13:02:15;5.05;;;3.47;;
18265;SDS011;9259;48.194;16.322;2023-05-21T13:04:46;7.03;;;3.40;;
18265;SDS011;9259;48.194;16.322;2023-05-21T13:07:17;6.13;;;3.00;;
18265;SDS011;9259;48.194;16.322;2023-05-21T13:09:44;5.75;;;3.35;;
18265;SDS011;9259;48.194;16.322;2023-05-21T13:12:12;4.70;;;3.88;;
18265;SDS011;9259;48.194;16.322;2023-05-21T13:14:39;5.70;;;3.75;;
18265;SDS011;9259;48.194;16.322;2023-05-21T13:17:06;6.85;;;3.50;;
18265;SDS011;9259;48.194;16.322;2023-05-21T13:19:34;4.43;;;3.08;;
18265;SDS011;9259;48.194;16.322;2023-05-21T13:22:01;4.88;;;3.38;;
18265;SDS011;9259;48.194;16.322;2023-05-21T13:24:31;6.65;;;3.30;;
18265;SDS011;9259;48.194;16.322;2023-05-21T13:26:58;6.03;;;3.00;;
18265;SDS011;9259;48.194;16.322;2023-05-21T13:29:26;5.78;;;3.22;;
18265;SDS011;9259;48.194;16.322;2023-05-21T13:31:53;5.68;;;3.25;;
18265;SDS011;9259;48.194;16.322;2023-05-21T13:34:21;5.07;;;3.13;;
18265;SDS011;9259;48.194;16.322;2023-05-21T13:36:48;5.07;;;3.35;;
18265;SDS011;9259;48.194;16.322;2023-05-21T13:39:16;4.35;;;3.10;;
18265;SDS011;9259;48.194;16.322;2023-05-21T13:41:44;4.35;;;3.15;;
18265;SDS011;9259;48.194;16.322;2023-05-21T13:44:12;5.32;;;3.45;;
18265;SDS011;9259;48.194;16.322;2023-05-21T13:46:40;5.68;;;2.90;;
18265;SDS011;9259;48.194;16.322;2023-05-21T13:49:07;4.55;;;3.35;;
18265;SDS011;9259;48.194;16.322;2023-05-21T13:51:35;5.53;;;3.22;;
18265;SDS011;9259;48.194;16.322;2023-05-21T13:54:02;4.97;;;3.45;;
18265;SDS011;9259;48.194;16.322;2023-05-21T13:56:30;4.88;;;2.97;;
18265;SDS011;9259;48.194;16.322;2023-05-21T13:58:59;5.95;;;3.30;;
18265;SDS011;9259;48.194;16.322;2023-05-21T14:01:27;4.75;;;3.30;;
18265;SDS011;9259;48.194;16.322;2023-05-21T14:03:54;4.43;;;2.80;;
18265;SDS011;9259;48.194;16.322;2023-05-21T14:06:22;5.40;;;3.15;;
18265;SDS011;9259;48.194;16.322;2023-05-21T14:08:49;7.38;;;2.88;;
18265;SDS011;9259;48.194;16.322;2023-05-21T14:11:17;4.70;;;2.83;;
18265;SDS011;9259;48.194;16.322;2023-05-21T14:13:44;4.68;;;3.15;;
18265;SDS011;9259;48.194;16.322;2023-05-21T14:16:14;5.10;;;3.38;;
18265;SDS011;9259;48.194;16.322;2023-05-21T14:18:41;4.10;;;3.03;;
18265;SDS011;9259;48.194;16.322;2023-05-21T14:21:09;5.15;;;2.92;;
18265;SDS011;9259;48.194;16.322;2023-05-21T14:23:36;5.10;;;2.67;;
18265;SDS011;9259;48.194;16.322;2023-05-21T14:26:03;6.00;;;2.70;;
18265;SDS011;9259;48.194;16.322;2023-05-21T14:28:31;3.33;;;2.55;;
18265;SDS011;9259;48.194;16.322;2023-05-21T14:30:58;4.10;;;2.75;;
18265;SDS011;9259;48.194;16.322;2023-05-21T14:33:29;5.38;;;2.95;;
18265;SDS011;9259;48.194;16.322;2023-05-21T14:35:57;4.90;;;2.80;;
18265;SDS011;9259;48.194;16.322;2023-05-21T14:38:25;5.25;;;3.08;;
18265;SDS011;9259;48.194;16.322;2023-05-21T14:40:53;4.93;;;2.95;;
18265;SDS011;9259;48.194;16.322;2023-05-21T14:43:20;3.92;;;2.80;;
18265;SDS011;9259;48.194;16.322;2023-05-21T14:45:48;5.13;;;2.90;;
18265;SDS011;9259;48.194;16.322;2023-05-21T14:48:15;5.30;;;3.17;;
18265;SDS011;9259;48.194;16.322;2023-05-21T14:50:48;4.88;;;2.72;;
18265;SDS011;9259;48.194;16.322;2023-05-21T14:53:16;6.10;;;2.90;;